ESSA/ARN METAR and TAF weather

Enter ICAO airport designator
Station Type Date Time Source
ESSA METAR 2019/07/18 10:50 UTC NOAA

ESSA 181050Z 28004KT 000V360 CAVOK 21/09 Q1012 NOSIG


Station Type Date Time Source
ESSA Decoded METAR 2019/07/18 10:50 UTC NOAA

Stockholm / Arlanda, Sweden (ESSA) 59-39N 017-57E 61M
Jul 18, 2019 - 06:50 AM EDT / 2019.07.18 1050 UTC
Wind: from the W (280 degrees) at 5 MPH (4 KT) (direction variable):0
Visibility: greater than 7 mile(s):0
Temperature: 69 F (21 C)
Dew Point: 48 F (9 C)
Relative Humidity: 46%
Pressure (altimeter): 29.88 in. Hg (1012 hPa)
ob: ESSA 181050Z 28004KT 000V360 CAVOK 21/09 Q1012 NOSIG
cycle: 11

Station Type Date Time Source
ESSA TAF 2019/07/18 06:33 UTC NOAA

TAF ESSA 180530Z 1806/1906 07004KT CAVOK PROB40 1811/1817 SCT050CB

Example: see airport list